sensor_id;sensor_type;location;lat;lon;timestamp;temperature;humidity
48488;DHT22;34289;48.572;13.378;2023-03-03T00:02:07;-0.30;99.90
48488;DHT22;34289;48.572;13.378;2023-03-03T00:04:33;-0.30;99.90
48488;DHT22;34289;48.572;13.378;2023-03-03T00:06:58;-0.20;99.90
48488;DHT22;34289;48.572;13.378;2023-03-03T00:09:24;-0.30;99.90
48488;DHT22;34289;48.572;13.378;2023-03-03T00:11:54;-0.10;99.90
48488;DHT22;34289;48.572;13.378;2023-03-03T00:14:31;-0.20;99.90
48488;DHT22;34289;48.572;13.378;2023-03-03T00:17:00;-0.10;99.90
48488;DHT22;34289;48.572;13.378;2023-03-03T00:19:26;-0.30;99.90
48488;DHT22;34289;48.572;13.378;2023-03-03T00:21:52;-0.60;99.90
48488;DHT22;34289;48.572;13.378;2023-03-03T00:24:21;-0.70;99.90
48488;DHT22;34289;48.572;13.378;2023-03-03T00:26:50;-0.70;99.90
48488;DHT22;34289;48.572;13.378;2023-03-03T00:29:35;-0.70;99.90
48488;DHT22;34289;48.572;13.378;2023-03-03T00:32:21;-0.60;99.90
48488;DHT22;34289;48.572;13.378;2023-03-03T00:34:47;-0.30;99.90
48488;DHT22;34289;48.572;13.378;2023-03-03T00:37:31;-0.30;99.90
48488;DHT22;34289;48.572;13.378;2023-03-03T00:40:24;-0.30;99.90
48488;DHT22;34289;48.572;13.378;2023-03-03T00:42:53;-0.20;99.90
48488;DHT22;34289;48.572;13.378;2023-03-03T00:48:30;-0.60;99.90
48488;DHT22;34289;48.572;13.378;2023-03-03T00:50:58;-0.70;99.90
48488;DHT22;34289;48.572;13.378;2023-03-03T00:53:26;-0.50;99.90
48488;DHT22;34289;48.572;13.378;2023-03-03T00:55:53;-0.50;99.90
48488;DHT22;34289;48.572;13.378;2023-03-03T00:58:20;-0.80;99.90
48488;DHT22;34289;48.572;13.378;2023-03-03T01:00:50;-0.90;99.90
48488;DHT22;34289;48.572;13.378;2023-03-03T01:03:21;-0.90;99.90
48488;DHT22;34289;48.572;13.378;2023-03-03T01:05:49;-0.60;99.90
48488;DHT22;34289;48.572;13.378;2023-03-03T01:08:15;-0.80;99.90
48488;DHT22;34289;48.572;13.378;2023-03-03T01:10:45;-1.00;99.90
48488;DHT22;34289;48.572;13.378;2023-03-03T01:13:12;-0.90;99.90
48488;DHT22;34289;48.572;13.378;2023-03-03T01:15:39;-0.80;99.90
48488;DHT22;34289;48.572;13.378;2023-03-03T01:18:06;-0.80;99.90
48488;DHT22;34289;48.572;13.378;2023-03-03T01:20:31;-0.70;99.90
48488;DHT22;34289;48.572;13.378;2023-03-03T01:22:57;-0.90;99.90
48488;DHT22;34289;48.572;13.378;2023-03-03T01:25:23;-1.00;99.90
48488;DHT22;34289;48.572;13.378;2023-03-03T01:27:48;-1.10;99.90
48488;DHT22;34289;48.572;13.378;2023-03-03T01:30:14;-1.20;99.90
48488;DHT22;34289;48.572;13.378;2023-03-03T01:32:40;-1.10;99.90
48488;DHT22;34289;48.572;13.378;2023-03-03T01:35:06;-1.00;99.90
48488;DHT22;34289;48.572;13.378;2023-03-03T01:37:33;-1.10;99.90
48488;DHT22;34289;48.572;13.378;2023-03-03T01:40:00;-0.10;99.90
48488;DHT22;34289;48.572;13.378;2023-03-03T01:42:25;-1.40;99.90
48488;DHT22;34289;48.572;13.378;2023-03-03T01:45:17;-1.20;99.90
48488;DHT22;34289;48.572;13.378;2023-03-03T01:50:38;-1.30;99.90
48488;DHT22;34289;48.572;13.378;2023-03-03T01:53:14;-1.40;99.90
48488;DHT22;34289;48.572;13.378;2023-03-03T01:55:41;-1.40;99.90
48488;DHT22;34289;48.572;13.378;2023-03-03T01:58:17;-1.20;99.90
48488;DHT22;34289;48.572;13.378;2023-03-03T02:00:47;-1.00;99.90
48488;DHT22;34289;48.572;13.378;2023-03-03T02:03:15;-1.10;99.90
48488;DHT22;34289;48.572;13.378;2023-03-03T02:05:41;-1.20;99.90
48488;DHT22;34289;48.572;13.378;2023-03-03T02:08:09;-1.20;99.90
48488;DHT22;34289;48.572;13.378;2023-03-03T02:10:36;-0.70;99.90
48488;DHT22;34289;48.572;13.378;2023-03-03T02:13:02;-1.20;99.90
48488;DHT22;34289;48.572;13.378;2023-03-03T02:15:33;-1.30;99.90
48488;DHT22;34289;48.572;13.378;2023-03-03T02:18:05;-1.20;99.90
48488;DHT22;34289;48.572;13.378;2023-03-03T02:25:36;-1.60;99.90
48488;DHT22;34289;48.572;13.378;2023-03-03T02:28:06;-1.90;99.90
48488;DHT22;34289;48.572;13.378;2023-03-03T02:30:37;-1.60;99.90
48488;DHT22;34289;48.572;13.378;2023-03-03T02:33:03;-1.40;99.90
48488;DHT22;34289;48.572;13.378;2023-03-03T02:35:36;-1.40;99.90
48488;DHT22;34289;48.572;13.378;2023-03-03T02:40:59;-1.10;99.90
48488;DHT22;34289;48.572;13.378;2023-03-03T02:43:32;-1.10;99.90
48488;DHT22;34289;48.572;13.378;2023-03-03T02:46:01;-1.20;99.90
48488;DHT22;34289;48.572;13.378;2023-03-03T02:48:26;-1.30;99.90
48488;DHT22;34289;48.572;13.378;2023-03-03T02:50:52;-1.60;99.90
48488;DHT22;34289;48.572;13.378;2023-03-03T02:53:17;-1.70;99.90
48488;DHT22;34289;48.572;13.378;2023-03-03T02:55:43;-1.70;99.90
48488;DHT22;34289;48.572;13.378;2023-03-03T02:58:09;-1.70;99.90
48488;DHT22;34289;48.572;13.378;2023-03-03T03:00:34;-1.60;99.90
48488;DHT22;34289;48.572;13.378;2023-03-03T03:03:00;-1.50;99.90
48488;DHT22;34289;48.572;13.378;2023-03-03T03:05:25;-1.80;99.90
48488;DHT22;34289;48.572;13.378;2023-03-03T03:07:51;-2.00;99.90
48488;DHT22;34289;48.572;13.378;2023-03-03T03:10:16;-2.00;99.90
48488;DHT22;34289;48.572;13.378;2023-03-03T03:12:42;-1.80;99.90
48488;DHT22;34289;48.572;13.378;2023-03-03T03:15:08;-1.60;99.90
48488;DHT22;34289;48.572;13.378;2023-03-03T03:17:36;-1.60;99.90
48488;DHT22;34289;48.572;13.378;2023-03-03T03:20:02;-1.60;99.90
48488;DHT22;34289;48.572;13.378;2023-03-03T03:22:28;-1.60;99.90
48488;DHT22;34289;48.572;13.378;2023-03-03T03:24:54;-1.60;99.90
48488;DHT22;34289;48.572;13.378;2023-03-03T03:27:19;-1.40;99.90
48488;DHT22;34289;48.572;13.378;2023-03-03T03:29:45;-0.50;99.90
48488;DHT22;34289;48.572;13.378;2023-03-03T03:32:11;-1.40;99.90
48488;DHT22;34289;48.572;13.378;2023-03-03T03:34:37;-1.40;99.90
48488;DHT22;34289;48.572;13.378;2023-03-03T03:37:02;-1.50;99.90
48488;DHT22;34289;48.572;13.378;2023-03-03T03:39:28;-1.50;99.90
48488;DHT22;34289;48.572;13.378;2023-03-03T03:41:54;-1.50;99.90
48488;DHT22;34289;48.572;13.378;2023-03-03T03:44:19;-1.50;99.90
48488;DHT22;34289;48.572;13.378;2023-03-03T03:46:45;-1.40;99.90
48488;DHT22;34289;48.572;13.378;2023-03-03T03:49:11;-1.50;99.90
48488;DHT22;34289;48.572;13.378;2023-03-03T03:51:36;-1.60;99.90
48488;DHT22;34289;48.572;13.378;2023-03-03T03:54:05;-1.60;99.90
48488;DHT22;34289;48.572;13.378;2023-03-03T03:56:31;-1.60;99.90
48488;DHT22;34289;48.572;13.378;2023-03-03T03:58:56;-1.50;99.90
48488;DHT22;34289;48.572;13.378;2023-03-03T04:01:22;-1.50;99.90
48488;DHT22;34289;48.572;13.378;2023-03-03T04:03:47;0.10;99.90
48488;DHT22;34289;48.572;13.378;2023-03-03T04:06:13;-2.40;99.90
48488;DHT22;34289;48.572;13.378;2023-03-03T04:08:39;-2.50;99.90
48488;DHT22;34289;48.572;13.378;2023-03-03T04:11:05;-2.50;99.90
48488;DHT22;34289;48.572;13.378;2023-03-03T04:13:30;-2.10;99.90
48488;DHT22;34289;48.572;13.378;2023-03-03T04:16:02;-0.30;99.90
48488;DHT22;34289;48.572;13.378;2023-03-03T04:18:28;-1.80;99.90
48488;DHT22;34289;48.572;13.378;2023-03-03T04:20:53;-1.90;99.90
48488;DHT22;34289;48.572;13.378;2023-03-03T04:23:19;-1.70;99.90
48488;DHT22;34289;48.572;13.378;2023-03-03T04:25:46;-1.70;99.90
48488;DHT22;34289;48.572;13.378;2023-03-03T04:28:12;-1.60;99.90
48488;DHT22;34289;48.572;13.378;2023-03-03T04:30:38;-1.70;99.90
48488;DHT22;34289;48.572;13.378;2023-03-03T04:33:04;-1.70;99.90
48488;DHT22;34289;48.572;13.378;2023-03-03T04:35:30;-1.50;99.90
48488;DHT22;34289;48.572;13.378;2023-03-03T04:37:55;-1.50;99.90
48488;DHT22;34289;48.572;13.378;2023-03-03T04:40:21;-1.50;99.90
48488;DHT22;34289;48.572;13.378;2023-03-03T04:42:47;-1.50;99.90
48488;DHT22;34289;48.572;13.378;2023-03-03T04:45:12;-1.50;99.90
48488;DHT22;34289;48.572;13.378;2023-03-03T04:47:38;-1.40;99.90
48488;DHT22;34289;48.572;13.378;2023-03-03T04:50:04;-1.30;99.90
48488;DHT22;34289;48.572;13.378;2023-03-03T04:52:32;-1.30;99.90
48488;DHT22;34289;48.572;13.378;2023-03-03T04:54:58;-1.50;99.90
48488;DHT22;34289;48.572;13.378;2023-03-03T04:57:24;-1.60;99.90
48488;DHT22;34289;48.572;13.378;2023-03-03T04:59:49;-1.60;99.90
48488;DHT22;34289;48.572;13.378;2023-03-03T05:02:16;-1.50;99.90
48488;DHT22;34289;48.572;13.378;2023-03-03T05:04:41;-1.50;99.90
48488;DHT22;34289;48.572;13.378;2023-03-03T05:07:07;-0.50;99.90
48488;DHT22;34289;48.572;13.378;2023-03-03T05:09:33;-1.50;99.90
48488;DHT22;34289;48.572;13.378;2023-03-03T05:11:58;-1.40;99.90
48488;DHT22;34289;48.572;13.378;2023-03-03T05:14:25;-1.40;99.90
48488;DHT22;34289;48.572;13.378;2023-03-03T05:16:51;-1.80;99.90
48488;DHT22;34289;48.572;13.378;2023-03-03T05:19:19;-2.10;99.90
48488;DHT22;34289;48.572;13.378;2023-03-03T05:21:45;-2.20;99.90
48488;DHT22;34289;48.572;13.378;2023-03-03T05:24:12;-2.10;99.90
48488;DHT22;34289;48.572;13.378;2023-03-03T05:26:38;-2.20;99.90
48488;DHT22;34289;48.572;13.378;2023-03-03T05:29:05;-1.90;99.90
48488;DHT22;34289;48.572;13.378;2023-03-03T05:31:31;-2.00;99.90
48488;DHT22;34289;48.572;13.378;2023-03-03T05:33:56;-1.90;99.90
48488;DHT22;34289;48.572;13.378;2023-03-03T05:36:22;-1.70;99.90
48488;DHT22;34289;48.572;13.378;2023-03-03T05:38:48;-1.60;99.90
48488;DHT22;34289;48.572;13.378;2023-03-03T05:41:13;-1.50;99.90
48488;DHT22;34289;48.572;13.378;2023-03-03T05:43:39;-1.60;99.90
48488;DHT22;34289;48.572;13.378;2023-03-03T05:46:05;-1.70;99.90
48488;DHT22;34289;48.572;13.378;2023-03-03T05:48:30;-1.60;99.90
48488;DHT22;34289;48.572;13.378;2023-03-03T05:50:59;-1.50;99.90
48488;DHT22;34289;48.572;13.378;2023-03-03T05:53:26;-1.50;99.90
48488;DHT22;34289;48.572;13.378;2023-03-03T05:55:52;-1.30;99.90
48488;DHT22;34289;48.572;13.378;2023-03-03T05:58:17;-1.20;99.90
48488;DHT22;34289;48.572;13.378;2023-03-03T06:00:43;-1.20;99.90
48488;DHT22;34289;48.572;13.378;2023-03-03T06:03:08;-0.80;99.90
48488;DHT22;34289;48.572;13.378;2023-03-03T06:05:34;-1.20;99.90
48488;DHT22;34289;48.572;13.378;2023-03-03T06:08:00;-1.10;99.90
48488;DHT22;34289;48.572;13.378;2023-03-03T06:10:25;-1.00;99.90
48488;DHT22;34289;48.572;13.378;2023-03-03T06:12:51;-0.80;99.90
48488;DHT22;34289;48.572;13.378;2023-03-03T06:15:17;-0.80;99.90
48488;DHT22;34289;48.572;13.378;2023-03-03T06:17:43;-0.80;99.90
48488;DHT22;34289;48.572;13.378;2023-03-03T06:20:09;-0.70;99.90
48488;DHT22;34289;48.572;13.378;2023-03-03T06:22:35;-0.60;99.90
48488;DHT22;34289;48.572;13.378;2023-03-03T06:25:00;-0.40;99.90
48488;DHT22;34289;48.572;13.378;2023-03-03T06:27:26;-0.50;99.90
48488;DHT22;34289;48.572;13.378;2023-03-03T06:29:52;-0.50;99.90
48488;DHT22;34289;48.572;13.378;2023-03-03T06:32:17;-0.80;99.90
48488;DHT22;34289;48.572;13.378;2023-03-03T06:34:43;-1.00;99.90
48488;DHT22;34289;48.572;13.378;2023-03-03T06:37:09;-1.00;99.90
48488;DHT22;34289;48.572;13.378;2023-03-03T06:39:34;-0.90;99.90
48488;DHT22;34289;48.572;13.378;2023-03-03T06:42:00;-0.70;99.90
48488;DHT22;34289;48.572;13.378;2023-03-03T06:44:25;0.20;99.90
48488;DHT22;34289;48.572;13.378;2023-03-03T06:46:51;-0.10;99.90
48488;DHT22;34289;48.572;13.378;2023-03-03T06:49:18;-0.10;99.90
48488;DHT22;34289;48.572;13.378;2023-03-03T06:51:43;-0.10;99.90
48488;DHT22;34289;48.572;13.378;2023-03-03T06:56:37;0.40;99.90
48488;DHT22;34289;48.572;13.378;2023-03-03T06:59:13;0.60;99.90
48488;DHT22;34289;48.572;13.378;2023-03-03T07:01:40;0.70;99.90
48488;DHT22;34289;48.572;13.378;2023-03-03T07:06:41;1.00;99.90
48488;DHT22;34289;48.572;13.378;2023-03-03T07:09:21;1.30;99.90
48488;DHT22;34289;48.572;13.378;2023-03-03T07:11:48;2.00;99.90
48488;DHT22;34289;48.572;13.378;2023-03-03T07:14:17;2.60;99.90
48488;DHT22;34289;48.572;13.378;2023-03-03T07:16:43;2.50;99.90
48488;DHT22;34289;48.572;13.378;2023-03-03T07:19:28;2.30;99.90
48488;DHT22;34289;48.572;13.378;2023-03-03T07:21:54;2.00;99.90
48488;DHT22;34289;48.572;13.378;2023-03-03T07:24:27;1.80;99.90
48488;DHT22;34289;48.572;13.378;2023-03-03T07:27:27;2.00;99.90
48488;DHT22;34289;48.572;13.378;2023-03-03T07:32:43;2.60;99.90
48488;DHT22;34289;48.572;13.378;2023-03-03T07:37:58;5.10;99.90
48488;DHT22;34289;48.572;13.378;2023-03-03T07:42:58;7.00;99.90
48488;DHT22;34289;48.572;13.378;2023-03-03T07:45:27;7.00;99.90
48488;DHT22;34289;48.572;13.378;2023-03-03T07:50:39;5.30;99.90
48488;DHT22;34289;48.572;13.378;2023-03-03T07:53:13;5.50;99.90
48488;DHT22;34289;48.572;13.378;2023-03-03T07:55:40;5.50;99.90
48488;DHT22;34289;48.572;13.378;2023-03-03T08:03:23;6.80;99.90
48488;DHT22;34289;48.572;13.378;2023-03-03T08:05:49;7.00;99.90
48488;DHT22;34289;48.572;13.378;2023-03-03T08:08:27;7.60;99.90
48488;DHT22;34289;48.572;13.378;2023-03-03T08:10:56;9.10;99.90
48488;DHT22;34289;48.572;13.378;2023-03-03T08:13:36;11.10;99.90
48488;DHT22;34289;48.572;13.378;2023-03-03T08:18:38;14.70;97.20
48488;DHT22;34289;48.572;13.378;2023-03-03T08:21:10;15.10;95.70
48488;DHT22;34289;48.572;13.378;2023-03-03T08:23:37;15.50;95.30
48488;DHT22;34289;48.572;13.378;2023-03-03T08:26:03;15.60;93.40
48488;DHT22;34289;48.572;13.378;2023-03-03T08:28:28;15.30;94.40
48488;DHT22;34289;48.572;13.378;2023-03-03T08:30:54;16.00;93.60
48488;DHT22;34289;48.572;13.378;2023-03-03T08:33:20;16.30;93.30
48488;DHT22;34289;48.572;13.378;2023-03-03T08:35:46;16.30;92.20
48488;DHT22;34289;48.572;13.378;2023-03-03T08:38:13;16.60;92.30
48488;DHT22;34289;48.572;13.378;2023-03-03T08:40:39;17.20;90.80
48488;DHT22;34289;48.572;13.378;2023-03-03T08:43:05;17.50;90.70
48488;DHT22;34289;48.572;13.378;2023-03-03T08:45:31;17.40;89.60
48488;DHT22;34289;48.572;13.378;2023-03-03T08:47:57;17.20;90.70
48488;DHT22;34289;48.572;13.378;2023-03-03T08:50:24;17.80;89.00
48488;DHT22;34289;48.572;13.378;2023-03-03T08:52:51;18.30;87.40
48488;DHT22;34289;48.572;13.378;2023-03-03T08:55:16;18.30;87.60
48488;DHT22;34289;48.572;13.378;2023-03-03T08:57:42;18.30;85.40
48488;DHT22;34289;48.572;13.378;2023-03-03T09:00:10;17.10;88.00
48488;DHT22;34289;48.572;13.378;2023-03-03T09:02:36;15.80;91.30
48488;DHT22;34289;48.572;13.378;2023-03-03T09:05:03;17.30;87.50
48488;DHT22;34289;48.572;13.378;2023-03-03T09:07:28;17.90;86.40
48488;DHT22;34289;48.572;13.378;2023-03-03T09:09:54;17.70;86.00
48488;DHT22;34289;48.572;13.378;2023-03-03T09:14:51;18.00;86.00
48488;DHT22;34289;48.572;13.378;2023-03-03T09:17:32;18.10;86.10
48488;DHT22;34289;48.572;13.378;2023-03-03T09:22:44;19.40;82.00
48488;DHT22;34289;48.572;13.378;2023-03-03T09:25:35;19.80;83.90
48488;DHT22;34289;48.572;13.378;2023-03-03T09:28:02;19.50;80.40
48488;DHT22;34289;48.572;13.378;2023-03-03T09:30:39;19.20;82.80
48488;DHT22;34289;48.572;13.378;2023-03-03T09:33:30;18.20;83.40
48488;DHT22;34289;48.572;13.378;2023-03-03T09:36:29;17.40;86.20
48488;DHT22;34289;48.572;13.378;2023-03-03T09:39:00;15.80;88.30
48488;DHT22;34289;48.572;13.378;2023-03-03T09:41:58;14.80;90.50
48488;DHT22;34289;48.572;13.378;2023-03-03T09:44:36;15.00;91.80
48488;DHT22;34289;48.572;13.378;2023-03-03T09:50:11;13.70;92.30
48488;DHT22;34289;48.572;13.378;2023-03-03T09:56:02;12.70;95.10
48488;DHT22;34289;48.572;13.378;2023-03-03T10:10:09;15.10;92.90
48488;DHT22;34289;48.572;13.378;2023-03-03T10:21:09;13.90;92.00
48488;DHT22;34289;48.572;13.378;2023-03-03T10:34:49;13.30;94.20
48488;DHT22;34289;48.572;13.378;2023-03-03T10:37:31;12.40;94.70
48488;DHT22;34289;48.572;13.378;2023-03-03T10:51:25;12.20;97.60
48488;DHT22;34289;48.572;13.378;2023-03-03T10:54:05;12.30;96.40
48488;DHT22;34289;48.572;13.378;2023-03-03T10:59:33;14.50;94.60
48488;DHT22;34289;48.572;13.378;2023-03-03T11:12:15;13.40;95.20
48488;DHT22;34289;48.572;13.378;2023-03-03T11:17:58;13.10;96.30
48488;DHT22;34289;48.572;13.378;2023-03-03T11:34:31;11.80;98.80
48488;DHT22;34289;48.572;13.378;2023-03-03T11:37:05;11.70;98.10
48488;DHT22;34289;48.572;13.378;2023-03-03T11:39:33;12.10;97.90
48488;DHT22;34289;48.572;13.378;2023-03-03T11:44:55;12.50;97.90
48488;DHT22;34289;48.572;13.378;2023-03-03T11:47:27;12.80;97.80
48488;DHT22;34289;48.572;13.378;2023-03-03T11:50:03;13.10;96.70
48488;DHT22;34289;48.572;13.378;2023-03-03T11:55:19;12.10;96.10
48488;DHT22;34289;48.572;13.378;2023-03-03T11:57:57;11.70;96.90
48488;DHT22;34289;48.572;13.378;2023-03-03T12:00:44;11.70;97.10
48488;DHT22;34289;48.572;13.378;2023-03-03T12:03:30;11.40;97.90
48488;DHT22;34289;48.572;13.378;2023-03-03T12:06:31;11.30;98.40
48488;DHT22;34289;48.572;13.378;2023-03-03T12:17:02;11.40;97.00
48488;DHT22;34289;48.572;13.378;2023-03-03T12:22:24;12.00;96.40
48488;DHT22;34289;48.572;13.378;2023-03-03T12:33:29;10.90;99.20
48488;DHT22;34289;48.572;13.378;2023-03-03T12:41:49;11.50;98.10
48488;DHT22;34289;48.572;13.378;2023-03-03T12:47:26;11.80;95.70
48488;DHT22;34289;48.572;13.378;2023-03-03T12:50:24;11.40;96.80
48488;DHT22;34289;48.572;13.378;2023-03-03T13:04:43;12.20;96.00
48488;DHT22;34289;48.572;13.378;2023-03-03T13:07:26;12.00;96.40
48488;DHT22;34289;48.572;13.378;2023-03-03T13:15:21;12.00;97.10
48488;DHT22;34289;48.572;13.378;2023-03-03T13:23:21;12.10;97.00
48488;DHT22;34289;48.572;13.378;2023-03-03T13:25:58;11.90;96.20
48488;DHT22;34289;48.572;13.378;2023-03-03T13:28:45;12.00;97.40
48488;DHT22;34289;48.572;13.378;2023-03-03T13:31:20;12.00;96.90
48488;DHT22;34289;48.572;13.378;2023-03-03T13:33:57;11.80;97.50
48488;DHT22;34289;48.572;13.378;2023-03-03T13:36:27;12.30;97.40
48488;DHT22;34289;48.572;13.378;2023-03-03T13:39:01;12.00;97.30
48488;DHT22;34289;48.572;13.378;2023-03-03T13:41:42;12.10;98.10
48488;DHT22;34289;48.572;13.378;2023-03-03T13:44:33;12.00;97.60
48488;DHT22;34289;48.572;13.378;2023-03-03T13:47:12;11.90;97.40
48488;DHT22;34289;48.572;13.378;2023-03-03T13:52:28;11.80;98.00
48488;DHT22;34289;48.572;13.378;2023-03-03T13:58:25;11.50;98.40
48488;DHT22;34289;48.572;13.378;2023-03-03T14:01:00;11.30;99.10
48488;DHT22;34289;48.572;13.378;2023-03-03T14:06:29;11.30;98.90
48488;DHT22;34289;48.572;13.378;2023-03-03T14:09:29;11.40;98.20
48488;DHT22;34289;48.572;13.378;2023-03-03T14:12:39;11.50;97.90
48488;DHT22;34289;48.572;13.378;2023-03-03T14:15:27;11.60;96.90
48488;DHT22;34289;48.572;13.378;2023-03-03T14:20:42;11.90;96.70
48488;DHT22;34289;48.572;13.378;2023-03-03T14:23:46;11.60;97.40
48488;DHT22;34289;48.572;13.378;2023-03-03T14:26:14;11.60;99.00
48488;DHT22;34289;48.572;13.378;2023-03-03T14:28:42;11.60;97.60
48488;DHT22;34289;48.572;13.378;2023-03-03T14:31:16;11.50;97.90
48488;DHT22;34289;48.572;13.378;2023-03-03T14:33:45;11.50;98.30
48488;DHT22;34289;48.572;13.378;2023-03-03T14:36:26;11.40;98.40
48488;DHT22;34289;48.572;13.378;2023-03-03T14:38:52;11.30;99.10
48488;DHT22;34289;48.572;13.378;2023-03-03T14:41:20;11.10;98.10
48488;DHT22;34289;48.572;13.378;2023-03-03T14:44:01;11.20;98.80
48488;DHT22;34289;48.572;13.378;2023-03-03T14:46:45;11.50;98.70
48488;DHT22;34289;48.572;13.378;2023-03-03T14:49:28;11.40;97.90
48488;DHT22;34289;48.572;13.378;2023-03-03T14:52:01;11.30;97.80
48488;DHT22;34289;48.572;13.378;2023-03-03T14:54:33;11.30;98.30
48488;DHT22;34289;48.572;13.378;2023-03-03T14:59:42;11.40;98.60
48488;DHT22;34289;48.572;13.378;2023-03-03T15:04:45;11.40;98.60
48488;DHT22;34289;48.572;13.378;2023-03-03T15:07:37;11.50;97.70
48488;DHT22;34289;48.572;13.378;2023-03-03T15:10:05;11.30;97.00
48488;DHT22;34289;48.572;13.378;2023-03-03T15:17:35;11.30;98.60
48488;DHT22;34289;48.572;13.378;2023-03-03T15:30:38;10.90;98.20
48488;DHT22;34289;48.572;13.378;2023-03-03T15:36:03;10.80;98.00
48488;DHT22;34289;48.572;13.378;2023-03-03T15:38:46;10.70;97.80
48488;DHT22;34289;48.572;13.378;2023-03-03T15:41:37;10.70;98.80
48488;DHT22;34289;48.572;13.378;2023-03-03T15:46:52;10.50;99.60
48488;DHT22;34289;48.572;13.378;2023-03-03T15:49:53;10.40;99.70
48488;DHT22;34289;48.572;13.378;2023-03-03T15:52:42;10.40;99.90
48488;DHT22;34289;48.572;13.378;2023-03-03T16:03:57;10.40;99.90
48488;DHT22;34289;48.572;13.378;2023-03-03T16:09:56;10.50;99.90
48488;DHT22;34289;48.572;13.378;2023-03-03T16:26:31;9.50;99.90
48488;DHT22;34289;48.572;13.378;2023-03-03T16:31:57;9.30;99.90
48488;DHT22;34289;48.572;13.378;2023-03-03T16:42:25;9.00;99.90
48488;DHT22;34289;48.572;13.378;2023-03-03T16:55:37;7.70;99.90
48488;DHT22;34289;48.572;13.378;2023-03-03T17:06:47;7.20;99.90
48488;DHT22;34289;48.572;13.378;2023-03-03T17:18:04;6.20;99.90
48488;DHT22;34289;48.572;13.378;2023-03-03T17:20:45;5.90;99.90
48488;DHT22;34289;48.572;13.378;2023-03-03T17:36:20;5.80;99.90
48488;DHT22;34289;48.572;13.378;2023-03-03T17:44:33;5.50;99.90
48488;DHT22;34289;48.572;13.378;2023-03-03T17:47:12;5.40;99.90
48488;DHT22;34289;48.572;13.378;2023-03-03T17:50:01;6.50;99.90
48488;DHT22;34289;48.572;13.378;2023-03-03T18:01:20;5.00;99.90
48488;DHT22;34289;48.572;13.378;2023-03-03T18:14:43;4.50;99.90
48488;DHT22;34289;48.572;13.378;2023-03-03T18:25:03;4.00;99.90
48488;DHT22;34289;48.572;13.378;2023-03-03T18:27:36;3.90;99.90
48488;DHT22;34289;48.572;13.378;2023-03-03T18:35:27;3.70;99.90
48488;DHT22;34289;48.572;13.378;2023-03-03T18:37:55;3.70;99.90
48488;DHT22;34289;48.572;13.378;2023-03-03T18:40:30;4.80;99.90
48488;DHT22;34289;48.572;13.378;2023-03-03T18:42:56;3.70;99.90
48488;DHT22;34289;48.572;13.378;2023-03-03T18:50:45;3.10;99.90
48488;DHT22;34289;48.572;13.378;2023-03-03T18:55:54;3.00;99.90
48488;DHT22;34289;48.572;13.378;2023-03-03T18:58:33;2.70;99.90
48488;DHT22;34289;48.572;13.378;2023-03-03T19:01:33;2.80;99.90
48488;DHT22;34289;48.572;13.378;2023-03-03T19:04:17;2.90;99.90
48488;DHT22;34289;48.572;13.378;2023-03-03T19:09:18;2.70;99.90
48488;DHT22;34289;48.572;13.378;2023-03-03T19:11:53;2.50;99.90
48488;DHT22;34289;48.572;13.378;2023-03-03T19:16:54;2.30;99.90
48488;DHT22;34289;48.572;13.378;2023-03-03T19:19:33;2.50;99.90
48488;DHT22;34289;48.572;13.378;2023-03-03T19:22:23;2.80;99.90
48488;DHT22;34289;48.572;13.378;2023-03-03T19:25:17;2.20;99.90
48488;DHT22;34289;48.572;13.378;2023-03-03T19:33:50;1.80;99.90
48488;DHT22;34289;48.572;13.378;2023-03-03T19:52:53;2.30;99.90
48488;DHT22;34289;48.572;13.378;2023-03-03T19:55:51;2.20;99.90
48488;DHT22;34289;48.572;13.378;2023-03-03T20:01:38;1.90;99.90
48488;DHT22;34289;48.572;13.378;2023-03-03T20:06:42;1.40;99.90
48488;DHT22;34289;48.572;13.378;2023-03-03T20:14:46;1.80;99.90
48488;DHT22;34289;48.572;13.378;2023-03-03T20:23:59;0.70;99.90
48488;DHT22;34289;48.572;13.378;2023-03-03T20:26:16;0.70;99.90
48488;DHT22;34289;48.572;13.378;2023-03-03T20:34:40;1.20;99.90
48488;DHT22;34289;48.572;13.378;2023-03-03T20:37:33;0.90;99.90
48488;DHT22;34289;48.572;13.378;2023-03-03T20:40:42;0.90;99.90
48488;DHT22;34289;48.572;13.378;2023-03-03T20:43:21;1.00;99.90
48488;DHT22;34289;48.572;13.378;2023-03-03T20:46:25;1.10;99.90
48488;DHT22;34289;48.572;13.378;2023-03-03T20:52:07;1.30;99.90
48488;DHT22;34289;48.572;13.378;2023-03-03T21:00:14;1.30;99.90
48488;DHT22;34289;48.572;13.378;2023-03-03T21:03:33;1.30;99.90
48488;DHT22;34289;48.572;13.378;2023-03-03T21:05:33;1.30;99.90
48488;DHT22;34289;48.572;13.378;2023-03-03T21:08:03;1.30;99.90
48488;DHT22;34289;48.572;13.378;2023-03-03T21:10:30;1.00;99.90
48488;DHT22;34289;48.572;13.378;2023-03-03T21:13:25;0.70;99.90
48488;DHT22;34289;48.572;13.378;2023-03-03T21:18:37;0.90;99.90
48488;DHT22;34289;48.572;13.378;2023-03-03T21:21:03;0.80;99.90
48488;DHT22;34289;48.572;13.378;2023-03-03T21:23:29;1.10;99.90
48488;DHT22;34289;48.572;13.378;2023-03-03T21:25:56;0.90;99.90
48488;DHT22;34289;48.572;13.378;2023-03-03T21:28:27;1.10;99.90
48488;DHT22;34289;48.572;13.378;2023-03-03T21:37:02;0.50;99.90
48488;DHT22;34289;48.572;13.378;2023-03-03T21:39:27;0.50;99.90
48488;DHT22;34289;48.572;13.378;2023-03-03T21:42:08;0.60;99.90
48488;DHT22;34289;48.572;13.378;2023-03-03T21:44:45;0.30;99.90
48488;DHT22;34289;48.572;13.378;2023-03-03T21:47:15;0.50;99.90
48488;DHT22;34289;48.572;13.378;2023-03-03T21:49:42;0.70;99.90
48488;DHT22;34289;48.572;13.378;2023-03-03T21:52:12;0.70;99.90
48488;DHT22;34289;48.572;13.378;2023-03-03T21:54:41;0.40;99.90
48488;DHT22;34289;48.572;13.378;2023-03-03T21:57:06;0.30;99.90
48488;DHT22;34289;48.572;13.378;2023-03-03T21:59:32;0.20;99.90
48488;DHT22;34289;48.572;13.378;2023-03-03T22:01:57;0.20;99.90
48488;DHT22;34289;48.572;13.378;2023-03-03T22:04:23;0.20;99.90
48488;DHT22;34289;48.572;13.378;2023-03-03T22:06:49;1.40;99.90
48488;DHT22;34289;48.572;13.378;2023-03-03T22:09:17;0.10;99.90
48488;DHT22;34289;48.572;13.378;2023-03-03T22:11:43;0.20;99.90
48488;DHT22;34289;48.572;13.378;2023-03-03T22:14:09;-0.10;99.90
48488;DHT22;34289;48.572;13.378;2023-03-03T22:16:35;-0.30;99.90
48488;DHT22;34289;48.572;13.378;2023-03-03T22:19:01;0.00;99.90
48488;DHT22;34289;48.572;13.378;2023-03-03T22:21:26;-0.10;99.90
48488;DHT22;34289;48.572;13.378;2023-03-03T22:23:52;0.00;99.90
48488;DHT22;34289;48.572;13.378;2023-03-03T22:26:18;1.70;99.90
48488;DHT22;34289;48.572;13.378;2023-03-03T22:28:46;0.00;99.90
48488;DHT22;34289;48.572;13.378;2023-03-03T22:31:12;-0.10;99.90
48488;DHT22;34289;48.572;13.378;2023-03-03T22:33:37;0.00;99.90
48488;DHT22;34289;48.572;13.378;2023-03-03T22:36:03;0.00;99.90